createdAt,value
2023-02-28T00:00:42.534Z,85.81
2023-02-28T00:03:20.717Z,85.71
2023-02-28T00:05:50.684Z,85.86
2023-02-28T00:08:26.233Z,85.57
2023-02-28T00:10:55.947Z,85.22
2023-02-28T00:13:26.893Z,85.30
2023-02-28T00:16:01.823Z,85.28
2023-02-28T00:18:32.112Z,85.08
2023-02-28T00:21:02.607Z,85.23
2023-02-28T00:23:32.724Z,85.69
2023-02-28T00:26:03.289Z,85.84
2023-02-28T00:28:34.199Z,86.02
2023-02-28T00:31:04.825Z,86.09
2023-02-28T00:33:35.730Z,85.95
2023-02-28T00:36:09.898Z,86.22
2023-02-28T00:38:42.000Z,86.56
2023-02-28T00:41:11.957Z,86.59
2023-02-28T00:43:42.040Z,86.81
2023-02-28T00:46:16.934Z,87.04
2023-02-28T00:48:46.062Z,87.02
2023-02-28T00:51:15.872Z,86.81
2023-02-28T00:53:45.678Z,86.92
2023-02-28T00:56:15.627Z,87.25
2023-02-28T00:58:46.144Z,87.28
2023-02-28T01:01:20.078Z,87.28
2023-02-28T01:03:49.264Z,87.13
2023-02-28T01:06:19.294Z,87.15
2023-02-28T01:08:51.058Z,87.22
2023-02-28T01:11:20.473Z,87.00
2023-02-28T01:13:50.345Z,86.94
2023-02-28T01:16:27.366Z,86.96
2023-02-28T01:18:56.890Z,87.14
2023-02-28T01:21:27.474Z,86.84
2023-02-28T01:24:03.867Z,86.80
2023-02-28T01:26:34.450Z,86.73
2023-02-28T01:29:04.468Z,86.57
2023-02-28T01:31:34.138Z,86.67
2023-02-28T01:34:05.153Z,86.81
2023-02-28T01:36:34.834Z,86.93
2023-02-28T01:39:08.389Z,86.63
2023-02-28T01:41:38.303Z,86.88
2023-02-28T01:44:47.325Z,87.16
2023-02-28T01:47:17.067Z,87.04
2023-02-28T01:49:49.469Z,87.31
2023-02-28T01:52:21.352Z,87.39
2023-02-28T01:54:55.083Z,87.81
2023-02-28T01:57:39.566Z,88.00
2023-02-28T02:00:15.909Z,87.96
2023-02-28T02:03:06.446Z,87.71
2023-02-28T02:05:38.719Z,87.72
2023-02-28T02:08:37.513Z,87.68
2023-02-28T02:11:14.769Z,87.85
2023-02-28T02:14:05.804Z,88.04
2023-02-28T02:16:55.389Z,88.13
2023-02-28T02:19:57.929Z,87.90
2023-02-28T02:22:49.084Z,88.27
2023-02-28T02:25:25.151Z,87.58
2023-02-28T02:28:33.432Z,87.80
2023-02-28T02:31:29.869Z,87.56
2023-02-28T02:34:09.137Z,88.21
2023-02-28T02:36:53.611Z,88.11
2023-02-28T02:39:36.270Z,88.76
2023-02-28T02:42:24.047Z,88.68
2023-02-28T02:45:27.387Z,88.37
2023-02-28T02:48:08.639Z,88.30
2023-02-28T02:50:45.218Z,88.34
2023-02-28T02:53:19.532Z,88.38
2023-02-28T02:55:55.904Z,88.03
2023-02-28T02:58:30.976Z,88.29
2023-02-28T03:01:29.436Z,88.35
2023-02-28T03:04:04.473Z,87.96
2023-02-28T03:06:38.973Z,88.21
2023-02-28T03:09:08.090Z,87.88
2023-02-28T03:11:40.925Z,87.77
2023-02-28T03:14:56.340Z,87.74
2023-02-28T03:17:28.590Z,87.91
2023-02-28T03:20:17.050Z,87.96
2023-02-28T03:23:19.371Z,87.99
2023-02-28T03:26:04.552Z,88.33
2023-02-28T03:29:18.390Z,88.19
2023-02-28T03:32:29.859Z,87.99
2023-02-28T03:35:12.753Z,87.95
2023-02-28T03:37:47.408Z,88.16
2023-02-28T03:40:28.214Z,87.97
2023-02-28T03:43:09.774Z,87.76
2023-02-28T03:45:44.326Z,87.96
2023-02-28T03:48:27.958Z,87.82
2023-02-28T03:51:01.326Z,87.66
2023-02-28T03:53:36.121Z,87.66
2023-02-28T03:56:15.863Z,87.97
2023-02-28T03:59:13.559Z,88.03
2023-02-28T04:01:49.956Z,88.05
2023-02-28T04:04:21.485Z,87.93
2023-02-28T04:07:14.996Z,88.07
2023-02-28T04:09:45.185Z,87.86
2023-02-28T04:12:15.579Z,87.98
2023-02-28T04:14:44.865Z,88.13
2023-02-28T04:17:14.930Z,88.27
2023-02-28T04:19:45.459Z,88.34
2023-02-28T04:22:15.478Z,88.35
2023-02-28T04:24:45.074Z,88.36
2023-02-28T04:27:17.114Z,88.34
2023-02-28T04:29:46.499Z,88.24
2023-02-28T04:32:16.928Z,88.37
2023-02-28T04:34:47.669Z,88.36
2023-02-28T04:37:17.214Z,88.68
2023-02-28T04:39:47.233Z,88.61
2023-02-28T04:42:17.315Z,88.64
2023-02-28T04:44:48.901Z,88.47
2023-02-28T04:47:18.751Z,88.45
2023-02-28T04:49:49.413Z,88.33
2023-02-28T04:52:19.875Z,88.52
2023-02-28T04:54:50.717Z,88.29
2023-02-28T04:57:20.844Z,88.32
2023-02-28T04:59:51.123Z,88.22
2023-02-28T05:02:21.679Z,88.34
2023-02-28T05:04:50.901Z,88.34
2023-02-28T05:07:21.151Z,88.53
2023-02-28T05:09:50.422Z,88.79
2023-02-28T05:12:20.492Z,88.91
2023-02-28T05:14:49.992Z,88.79
2023-02-28T05:17:19.486Z,89.04
2023-02-28T05:19:54.581Z,88.76
2023-02-28T05:22:26.335Z,89.07
2023-02-28T05:24:57.058Z,88.95
2023-02-28T05:27:44.616Z,89.29
2023-02-28T05:30:15.693Z,89.16
2023-02-28T05:32:45.622Z,89.46
2023-02-28T05:35:17.758Z,89.89
2023-02-28T05:37:47.283Z,89.51
2023-02-28T05:40:23.261Z,89.07
2023-02-28T05:42:53.278Z,89.48
2023-02-28T05:45:23.490Z,89.95
2023-02-28T05:47:56.109Z,89.85
2023-02-28T05:50:26.594Z,89.65
2023-02-28T05:52:55.957Z,89.85
2023-02-28T05:55:26.470Z,89.94
2023-02-28T05:57:57.461Z,89.97
2023-02-28T06:00:26.861Z,89.91
2023-02-28T06:02:59.465Z,89.98
2023-02-28T06:05:29.863Z,90.05
2023-02-28T06:07:59.654Z,90.03
2023-02-28T06:10:29.338Z,90.02
2023-02-28T06:13:04.047Z,90.10
2023-02-28T06:15:36.979Z,90.06
2023-02-28T06:18:07.254Z,90.20
2023-02-28T06:20:37.799Z,90.21
2023-02-28T06:23:08.754Z,90.33
2023-02-28T06:25:38.492Z,90.37
2023-02-28T06:28:08.817Z,90.25
2023-02-28T06:30:41.772Z,90.19
2023-02-28T06:33:13.973Z,90.17
2023-02-28T06:35:48.101Z,89.81
2023-02-28T06:38:19.580Z,89.26
2023-02-28T06:41:01.065Z,89.31
2023-02-28T06:43:33.594Z,89.07
2023-02-28T06:46:06.366Z,89.02
2023-02-28T06:48:37.041Z,88.91
2023-02-28T06:51:11.271Z,89.37
2023-02-28T06:53:40.561Z,89.51
2023-02-28T06:56:13.368Z,89.15
2023-02-28T06:58:43.464Z,89.17
2023-02-28T07:01:15.605Z,89.14
2023-02-28T07:03:57.449Z,88.66
2023-02-28T07:06:39.149Z,88.39
2023-02-28T07:09:09.522Z,88.32
2023-02-28T07:11:39.424Z,87.95
2023-02-28T07:14:09.334Z,88.37
2023-02-28T07:16:39.284Z,88.23
2023-02-28T07:19:09.385Z,88.35
2023-02-28T07:21:40.874Z,88.44
2023-02-28T07:24:11.941Z,88.04
2023-02-28T07:26:41.913Z,87.54
2023-02-28T07:29:11.575Z,87.50
2023-02-28T07:31:41.201Z,87.71
2023-02-28T07:34:10.488Z,87.49
2023-02-28T07:36:41.088Z,87.23
2023-02-28T07:39:12.507Z,87.38
2023-02-28T07:41:44.942Z,87.34
2023-02-28T07:44:15.324Z,86.21
2023-02-28T07:46:45.415Z,84.95
2023-02-28T07:49:15.947Z,85.78
2023-02-28T07:51:46.200Z,86.15
2023-02-28T07:54:16.539Z,86.20
2023-02-28T07:56:46.395Z,86.07
2023-02-28T07:59:17.088Z,85.78
2023-02-28T08:01:46.986Z,85.83
2023-02-28T08:04:16.472Z,85.92
2023-02-28T08:06:46.410Z,85.91
2023-02-28T08:09:16.521Z,85.95
2023-02-28T08:11:46.605Z,85.21
2023-02-28T08:14:16.980Z,84.43
2023-02-28T08:16:46.072Z,84.52
2023-02-28T08:19:17.107Z,83.97
2023-02-28T08:21:46.202Z,83.53
2023-02-28T08:24:16.326Z,82.60
2023-02-28T08:26:46.653Z,82.26
2023-02-28T08:29:18.487Z,81.21
2023-02-28T08:31:48.992Z,79.49
2023-02-28T08:34:18.876Z,79.86
2023-02-28T08:36:48.762Z,79.86
2023-02-28T08:39:19.593Z,78.55
2023-02-28T08:42:02.203Z,77.33
2023-02-28T08:44:37.091Z,77.45
2023-02-28T08:47:06.710Z,78.05
2023-02-28T08:49:39.171Z,78.14
2023-02-28T08:52:09.463Z,78.29
2023-02-28T08:54:39.580Z,77.62
2023-02-28T08:57:09.563Z,77.74
2023-02-28T08:59:39.445Z,77.38
2023-02-28T09:02:13.943Z,77.07
2023-02-28T09:04:49.182Z,77.04
2023-02-28T09:07:18.747Z,76.92
2023-02-28T09:09:55.303Z,76.83
2023-02-28T09:12:27.509Z,77.09
2023-02-28T09:15:01.306Z,76.70
2023-02-28T09:17:31.203Z,76.18
2023-02-28T09:20:01.224Z,76.57
2023-02-28T09:22:30.734Z,76.32
2023-02-28T09:25:03.137Z,76.47
2023-02-28T09:27:33.689Z,75.69
2023-02-28T09:30:03.181Z,75.03
2023-02-28T09:32:32.823Z,74.79
2023-02-28T09:35:03.218Z,74.94
2023-02-28T09:37:33.535Z,74.74
2023-02-28T09:40:05.283Z,74.30
2023-02-28T09:42:35.933Z,73.45
2023-02-28T09:45:27.306Z,73.66
2023-02-28T09:48:05.743Z,70.31
2023-02-28T09:50:37.396Z,72.34
2023-02-28T09:53:29.478Z,72.57
2023-02-28T09:56:12.261Z,71.74
2023-02-28T09:59:08.616Z,71.00
2023-02-28T10:02:05.226Z,71.35
2023-02-28T10:04:56.911Z,71.28
2023-02-28T10:07:56.564Z,69.40
2023-02-28T10:10:58.618Z,69.97
2023-02-28T10:13:34.301Z,69.07
2023-02-28T10:16:13.300Z,68.89
2023-02-28T10:19:07.998Z,69.48
2023-02-28T10:21:50.502Z,69.13
2023-02-28T10:24:33.303Z,67.32
2023-02-28T10:27:17.713Z,66.82
2023-02-28T10:29:54.921Z,69.18
2023-02-28T10:32:31.447Z,70.15
2023-02-28T10:35:19.966Z,70.30
2023-02-28T10:37:54.824Z,68.67
2023-02-28T10:40:24.667Z,68.73
2023-02-28T10:42:58.437Z,69.77
2023-02-28T10:45:31.129Z,70.74
2023-02-28T10:48:02.949Z,70.61
2023-02-28T10:50:55.856Z,71.28
2023-02-28T10:53:28.555Z,70.51
2023-02-28T10:56:19.009Z,70.92
2023-02-28T10:59:02.311Z,69.97
2023-02-28T11:01:32.094Z,70.60
2023-02-28T11:04:04.676Z,71.15
2023-02-28T11:06:36.625Z,71.53
2023-02-28T11:09:23.660Z,72.18
2023-02-28T11:11:57.124Z,72.75
2023-02-28T11:14:31.356Z,72.50
2023-02-28T11:17:25.202Z,72.25
2023-02-28T11:20:16.373Z,71.41
2023-02-28T11:22:47.968Z,70.26
2023-02-28T11:25:37.836Z,70.39
2023-02-28T11:28:34.671Z,70.70
2023-02-28T11:31:17.861Z,70.15
2023-02-28T11:33:57.271Z,70.98
2023-02-28T11:36:30.952Z,71.95
2023-02-28T11:39:06.871Z,72.04
2023-02-28T11:42:03.816Z,70.85
2023-02-28T11:44:48.495Z,69.46
2023-02-28T11:47:27.397Z,70.21
2023-02-28T11:50:36.368Z,70.68
2023-02-28T11:54:01.402Z,70.57
2023-02-28T11:56:51.593Z,69.18
2023-02-28T11:59:30.768Z,69.06
2023-02-28T12:02:59.263Z,69.91
2023-02-28T12:05:48.924Z,70.67
2023-02-28T12:08:45.898Z,70.19
2023-02-28T12:11:41.579Z,71.22
2023-02-28T12:14:30.882Z,70.52
2023-02-28T12:17:06.221Z,69.97
2023-02-28T12:20:24.556Z,70.33
2023-02-28T12:23:41.071Z,70.73
2023-02-28T12:26:40.128Z,70.54
2023-02-28T12:29:25.426Z,69.85
2023-02-28T12:32:39.209Z,70.33
2023-02-28T12:35:11.751Z,70.02
2023-02-28T12:37:51.620Z,68.39
2023-02-28T12:40:44.508Z,68.31
2023-02-28T12:43:16.848Z,69.03
2023-02-28T12:46:19.330Z,69.01
2023-02-28T12:48:53.977Z,70.39
2023-02-28T12:51:31.790Z,71.22
2023-02-28T12:54:25.685Z,69.40
2023-02-28T12:57:36.454Z,69.42
2023-02-28T13:00:48.796Z,71.18
2023-02-28T13:03:29.808Z,70.51
2023-02-28T13:07:01.342Z,69.75
2023-02-28T13:09:32.638Z,68.32
2023-02-28T13:12:18.321Z,68.37
2023-02-28T13:14:50.173Z,67.51
2023-02-28T13:17:27.507Z,68.51
2023-02-28T13:20:02.389Z,68.52
2023-02-28T13:22:36.503Z,68.49
2023-02-28T13:25:26.791Z,67.73
2023-02-28T13:27:58.148Z,68.10
2023-02-28T13:30:52.362Z,68.98
2023-02-28T13:33:29.246Z,69.95
2023-02-28T13:36:26.820Z,69.36
2023-02-28T13:39:06.058Z,68.60
2023-02-28T13:41:35.937Z,69.06
2023-02-28T13:44:39.996Z,69.08
2023-02-28T13:47:34.581Z,69.12
2023-02-28T13:50:27.173Z,68.83
2023-02-28T13:53:15.400Z,68.48
2023-02-28T13:56:26.787Z,69.18
2023-02-28T13:59:23.900Z,69.45
2023-02-28T14:02:25.450Z,69.92
2023-02-28T14:05:18.681Z,70.32
2023-02-28T14:07:54.563Z,70.60
2023-02-28T14:10:32.828Z,70.90
2023-02-28T14:13:27.486Z,71.13
2023-02-28T14:16:02.617Z,71.25
2023-02-28T14:18:39.607Z,71.23
2023-02-28T14:21:14.757Z,71.31
2023-02-28T14:24:23.464Z,71.59
2023-02-28T14:27:15.478Z,71.78
2023-02-28T14:30:06.435Z,71.74
2023-02-28T14:32:52.441Z,71.58
2023-02-28T14:35:44.561Z,71.68
2023-02-28T14:38:22.854Z,71.88
2023-02-28T14:40:58.583Z,72.13
2023-02-28T14:43:30.778Z,71.87
2023-02-28T14:46:22.584Z,72.51
2023-02-28T14:49:33.965Z,72.78
2023-02-28T14:52:20.619Z,72.11
2023-02-28T14:55:04.941Z,72.42
2023-02-28T14:57:43.139Z,72.16
2023-02-28T15:00:23.434Z,72.19
2023-02-28T15:02:55.213Z,72.87
2023-02-28T15:05:29.506Z,72.67
2023-02-28T15:08:18.538Z,73.21
2023-02-28T15:11:03.078Z,72.74
2023-02-28T15:13:57.796Z,73.35
2023-02-28T15:16:41.714Z,73.54
2023-02-28T15:19:30.984Z,73.66
2023-02-28T15:22:18.220Z,73.92
2023-02-28T15:24:54.653Z,73.61
2023-02-28T15:27:34.650Z,74.04
2023-02-28T15:30:18.461Z,74.00
2023-02-28T15:33:06.501Z,73.94
2023-02-28T15:35:37.061Z,73.60
2023-02-28T15:38:29.387Z,73.69
2023-02-28T15:41:00.745Z,74.07
2023-02-28T15:43:38.773Z,74.79
2023-02-28T15:46:14.736Z,74.80
2023-02-28T15:48:58.499Z,75.38
2023-02-28T15:51:38.289Z,75.63
2023-02-28T15:54:16.326Z,75.38
2023-02-28T15:56:55.301Z,75.21
2023-02-28T15:59:31.293Z,75.28
2023-02-28T16:02:05.641Z,75.11
2023-02-28T16:04:35.132Z,75.05
2023-02-28T16:07:06.849Z,75.10
2023-02-28T16:09:39.364Z,75.11
2023-02-28T16:12:14.964Z,75.22
2023-02-28T16:14:48.447Z,75.37
2023-02-28T16:17:31.219Z,75.10
2023-02-28T16:20:36.646Z,75.05
2023-02-28T16:23:09.984Z,75.23
2023-02-28T16:25:43.938Z,75.01
2023-02-28T16:28:34.980Z,74.82
2023-02-28T16:31:08.085Z,74.84
2023-02-28T16:33:41.899Z,75.01
2023-02-28T16:36:30.837Z,75.30
2023-02-28T16:39:00.266Z,75.34
2023-02-28T16:41:31.226Z,75.31
2023-02-28T16:44:02.478Z,75.18
2023-02-28T16:46:38.167Z,75.17
2023-02-28T16:49:14.649Z,75.22
2023-02-28T16:51:44.619Z,75.28
2023-02-28T16:54:14.424Z,75.77
2023-02-28T16:56:48.635Z,75.65
2023-02-28T16:59:24.926Z,76.11
2023-02-28T17:01:55.776Z,76.35
2023-02-28T17:04:26.861Z,76.67
2023-02-28T17:06:57.005Z,77.52
2023-02-28T17:09:41.269Z,77.91
2023-02-28T17:12:12.727Z,78.25
2023-02-28T17:14:41.993Z,79.06
2023-02-28T17:17:22.923Z,79.61
2023-02-28T17:19:53.531Z,79.44
2023-02-28T17:22:27.275Z,80.51
2023-02-28T17:24:57.153Z,80.49
2023-02-28T17:27:28.570Z,80.56
2023-02-28T17:29:58.998Z,80.65
2023-02-28T17:32:29.519Z,80.67
2023-02-28T17:35:00.797Z,81.30
2023-02-28T17:37:30.367Z,81.48
2023-02-28T17:40:00.790Z,81.46
2023-02-28T17:42:30.294Z,81.55
2023-02-28T17:45:00.274Z,81.64
2023-02-28T17:47:29.618Z,81.63
2023-02-28T17:49:59.809Z,81.35
2023-02-28T17:52:30.909Z,81.46
2023-02-28T17:55:07.562Z,81.55
2023-02-28T17:57:37.293Z,81.80
2023-02-28T18:00:08.166Z,81.85
2023-02-28T18:02:41.472Z,81.81
2023-02-28T18:05:15.982Z,82.02
2023-02-28T18:07:46.002Z,82.35
2023-02-28T18:10:22.540Z,82.81
2023-02-28T18:12:53.770Z,83.45
2023-02-28T18:15:24.118Z,83.54
2023-02-28T18:17:53.496Z,84.78
2023-02-28T18:20:24.521Z,84.78
2023-02-28T18:22:54.431Z,84.57
2023-02-28T18:25:26.784Z,84.58
2023-02-28T18:27:58.980Z,84.18
2023-02-28T18:30:34.001Z,83.85
2023-02-28T18:33:05.238Z,84.19
2023-02-28T18:35:37.760Z,84.62
2023-02-28T18:38:17.077Z,85.03
2023-02-28T18:41:08.799Z,85.00
2023-02-28T18:43:40.770Z,85.43
2023-02-28T18:46:13.514Z,85.11
2023-02-28T18:48:44.273Z,85.32
2023-02-28T18:51:20.234Z,85.24
2023-02-28T18:53:52.075Z,85.19
2023-02-28T18:56:25.628Z,85.14
2023-02-28T18:58:55.242Z,85.70
2023-02-28T19:01:31.524Z,86.00
2023-02-28T19:04:03.881Z,85.57
2023-02-28T19:06:34.873Z,85.35
2023-02-28T19:09:04.809Z,85.32
2023-02-28T19:11:36.658Z,85.25
2023-02-28T19:14:06.434Z,85.38
2023-02-28T19:16:36.699Z,85.37
2023-02-28T19:19:07.071Z,84.82
2023-02-28T19:21:37.055Z,84.73
2023-02-28T19:24:07.098Z,85.05
2023-02-28T19:26:37.234Z,85.31
2023-02-28T19:29:07.203Z,85.62
2023-02-28T19:31:38.679Z,85.56
2023-02-28T19:34:08.643Z,85.91
2023-02-28T19:36:39.111Z,85.92
2023-02-28T19:39:09.733Z,85.52
2023-02-28T19:41:40.230Z,85.44
2023-02-28T19:44:11.490Z,85.79
2023-02-28T19:46:40.962Z,85.03
2023-02-28T19:49:10.248Z,86.15
2023-02-28T19:51:44.284Z,85.79
2023-02-28T19:54:14.165Z,85.77
2023-02-28T19:56:44.516Z,86.57
2023-02-28T19:59:21.458Z,87.58
2023-02-28T20:01:57.030Z,87.23
2023-02-28T20:04:28.221Z,86.81
2023-02-28T20:06:58.702Z,87.17
2023-02-28T20:09:33.124Z,87.26
2023-02-28T20:12:09.272Z,86.96
2023-02-28T20:14:45.221Z,86.98
2023-02-28T20:17:17.761Z,86.97
2023-02-28T20:19:47.377Z,87.38
2023-02-28T20:22:17.358Z,87.50
2023-02-28T20:24:48.644Z,87.55
2023-02-28T20:27:18.918Z,87.30
2023-02-28T20:29:49.348Z,87.37
2023-02-28T20:32:18.920Z,87.52
2023-02-28T20:34:49.109Z,87.49
2023-02-28T20:37:18.471Z,87.82
2023-02-28T20:39:50.217Z,87.79
2023-02-28T20:42:22.613Z,87.78
2023-02-28T20:44:53.091Z,87.41
2023-02-28T20:47:22.679Z,87.39
2023-02-28T20:49:52.607Z,87.86
2023-02-28T20:52:22.727Z,87.27
2023-02-28T20:54:53.506Z,87.14
2023-02-28T20:57:25.706Z,87.87
2023-02-28T20:59:59.056Z,88.05
2023-02-28T21:02:39.655Z,87.75
2023-02-28T21:05:10.059Z,88.26
2023-02-28T21:07:39.771Z,88.28
2023-02-28T21:10:12.924Z,88.02
2023-02-28T21:12:43.848Z,88.39
2023-02-28T21:15:18.925Z,88.29
2023-02-28T21:17:49.546Z,88.59
2023-02-28T21:20:22.353Z,89.00
2023-02-28T21:22:54.344Z,88.97
2023-02-28T21:25:24.654Z,88.99
2023-02-28T21:27:56.073Z,88.91
2023-02-28T21:30:26.303Z,90.11
2023-02-28T21:32:58.303Z,91.26
2023-02-28T21:35:30.974Z,91.64
2023-02-28T21:38:00.373Z,93.24
2023-02-28T21:40:30.409Z,93.35
2023-02-28T21:43:00.451Z,93.16
2023-02-28T21:45:31.619Z,93.19
2023-02-28T21:48:05.689Z,93.91
2023-02-28T21:50:35.070Z,94.16
2023-02-28T21:53:04.710Z,93.82
2023-02-28T21:55:35.733Z,93.63
2023-02-28T21:58:05.613Z,93.24
2023-02-28T22:00:36.070Z,93.22
2023-02-28T22:03:06.170Z,92.78
2023-02-28T22:05:36.193Z,92.72
2023-02-28T22:08:07.199Z,92.66
2023-02-28T22:10:36.976Z,92.50
2023-02-28T22:13:16.221Z,92.68
2023-02-28T22:15:47.066Z,92.71
2023-02-28T22:18:17.307Z,93.04
2023-02-28T22:20:57.551Z,93.06
2023-02-28T22:23:26.870Z,92.88
2023-02-28T22:25:58.080Z,92.56
2023-02-28T22:28:30.893Z,92.59
2023-02-28T22:31:06.483Z,92.68
2023-02-28T22:33:36.097Z,92.70
2023-02-28T22:36:09.512Z,92.20
2023-02-28T22:38:40.331Z,92.10
2023-02-28T22:41:13.402Z,91.80
2023-02-28T22:43:44.540Z,91.32
2023-02-28T22:46:14.273Z,91.73
2023-02-28T22:48:44.415Z,91.81
2023-02-28T22:51:20.472Z,91.68
2023-02-28T22:53:52.412Z,91.68
2023-02-28T22:56:24.642Z,91.58
2023-02-28T22:58:57.514Z,92.74
2023-02-28T23:01:30.910Z,92.81
2023-02-28T23:04:01.924Z,93.39
2023-02-28T23:06:38.360Z,93.16
2023-02-28T23:09:12.222Z,93.91
2023-02-28T23:11:46.098Z,94.48
2023-02-28T23:14:18.520Z,93.84
2023-02-28T23:16:52.088Z,93.90
2023-02-28T23:19:31.050Z,94.70
2023-02-28T23:22:03.180Z,95.63
2023-02-28T23:24:35.697Z,95.83
2023-02-28T23:27:05.788Z,95.60
2023-02-28T23:29:36.622Z,96.74
2023-02-28T23:32:06.831Z,96.96
2023-02-28T23:34:36.924Z,96.69
2023-02-28T23:37:06.726Z,96.13
2023-02-28T23:39:36.918Z,95.75
2023-02-28T23:42:06.774Z,95.59
2023-02-28T23:44:41.038Z,95.28
2023-02-28T23:47:14.453Z,95.71
2023-02-28T23:49:48.904Z,95.52
2023-02-28T23:52:22.341Z,95.21
2023-02-28T23:54:54.580Z,95.10
2023-02-28T23:57:23.993Z,95.01
2023-02-28T23:59:55.739Z,94.88
